Data for 11/17/2010

Time Sea-Level Adjusted Pressure Absolute Pressure Temperature Relative Humidity Dew Point   
(mb) (inHg) (mb) (inHg) (C) (F) (%) (C) (F)
00:05 1021 30.15 850 25.1 -4.6 23.7 82 -7.2 19
00:10 1021 30.15 850 25.1 -4.7 23.6 83 -7.2 19.1
00:15 1021 30.15 850 25.1 -4.8 23.4 83 -7.2 19
00:20 1021 30.15 850 25.1 -4.8 23.4 83 -7.3 18.9
00:25 1021 30.15 850 25.1 -4.8 23.3 83 -7.3 18.8
00:30 1021 30.15 850 25.1 -4.9 23.2 83 -7.4 18.7
00:35 1021 30.15 850 25.1 -5 23.1 84 -7.2 19
00:40 1021 30.15 850 25.1 -5 23.1 84 -7.2 19
00:45 1021 30.15 850 25.1 -5 23 84 -7.3 18.9
00:50 1021 30.15 850 25.1 -5 23 84 -7.3 18.9
00:55 1021 30.15 850 25.1 -5 23 84 -7.3 18.9
01:00 1021 30.15 850 25.1 -5.1 22.8 85 -7.3 18.8
01:05 1020 30.12 850 25.1 -5.3 22.4 85 -7.4 18.7
01:10 1020 30.12 850 25.1 -5.5 22.1 86 -7.5 18.6
01:15 1021 30.15 850 25.1 -5.5 22.1 87 -7.4 18.7
01:20 1021 30.15 850 25.1 -5.5 22.2 86 -7.4 18.6
01:25 1021 30.15 850 25.1 -5.5 22.1 87 -7.4 18.7
01:30 1021 30.15 850 25.1 -5.4 22.3 86 -7.3 18.8
01:35 1021 30.15 850 25.1 -5.4 22.3 86 -7.3 18.8
01:40 1021 30.15 850 25.1 -5.4 22.3 87 -7.3 18.8
01:45 1021 30.15 850 25.1 -5.6 22 87 -7.4 18.6
01:50 1021 30.15 850 25.1 -5.6 21.9 87 -7.4 18.6
01:55 1021 30.15 850 25.1 -5.6 22 86 -7.5 18.6
02:00 1021 30.15 850 25.1 -5.5 22 87 -7.3 18.8
02:05 1021 30.15 850 25.1 -5.5 22.1 87 -7.4 18.8
02:10 1021 30.15 850 25.1 -5.5 22 87 -7.3 18.8
02:15 1021 30.15 850 25.1 -5.5 22.1 87 -7.3 18.8
02:20 1021 30.15 850 25.1 -5.4 22.3 87 -7.3 18.9
02:25 1021 30.15 850 25.1 -5.1 22.8 85 -7.3 18.8
02:30 1021 30.15 850 25.1 -5.1 22.8 85 -7.2 19
02:35 1021 30.15 850 25.1 -5.3 22.4 86 -7.3 18.8
02:40 1021 30.15 850 25.1 -5.3 22.5 87 -7.2 19.1
02:45 1021 30.15 850 25.1 -5.1 22.8 86 -7.2 19.1
02:50 1021 30.15 850 25.1 -5.1 22.8 86 -7.1 19.2
02:55 1021 30.15 850 25.1 -5.2 22.7 87 -7.1 19.2
03:00 1021 30.15 850 25.1 -5.2 22.6 87 -7.1 19.2
03:05 1021 30.15 850 25.1 -5.2 22.6 87 -7.1 19.3
03:10 1021 30.15 850 25.1 -5.2 22.7 87 -7 19.4
03:15 1021 30.15 850 25.1 -5.2 22.7 87 -7 19.3
03:20 1021 30.15 850 25.1 -5.3 22.5 87 -7.1 19.2
03:25 1020 30.12 850 25.1 -5.5 22.1 88 -7.2 19
03:30 1020 30.12 850 25.1 -5.6 21.9 89 -7.2 19
03:35 1020 30.12 849 25.07 -5.7 21.7 89 -7.3 18.9
03:40 1020 30.12 849 25.07 -5.7 21.7 89 -7.3 18.9
03:45 1020 30.12 849 25.07 -5.7 21.8 88 -7.3 18.9
03:50 1020 30.12 849 25.07 -5.8 21.5 89 -7.3 18.8
03:55 1020 30.12 849 25.07 -5.8 21.6 89 -7.4 18.8
04:00 1020 30.12 849 25.07 -5.6 21.8 88 -7.4 18.8
04:05 1020 30.12 849 25.07 -5.7 21.7 88 -7.3 18.8
04:10 1020 30.12 849 25.07 -5.8 21.6 89 -7.3 18.8
04:15 1020 30.12 849 25.07 -5.8 21.5 90 -7.3 18.9
04:20 1020 30.12 849 25.07 -5.6 22 88 -7.3 18.9
04:25 1020 30.12 849 25.07 -5.5 22.1 88 -7.2 19.1
04:30 1020 30.12 849 25.07 -5.5 22.1 88 -7.2 19
04:35 1020 30.12 849 25.07 -5.6 21.9 88 -7.2 19
04:40 1020 30.12 849 25.07 -5.4 22.2 88 -7.2 19.1
04:45 1020 30.12 849 25.07 -5.5 22.2 88 -7.2 19.1
04:50 1020 30.12 849 25.07 -5.5 22 88 -7.2 19.1
04:55 1020 30.12 849 25.07 -5.5 22.2 87 -7.2 19
05:00 1020 30.12 849 25.07 -5.6 21.9 88 -7.2 19
05:05 1020 30.12 849 25.07 -5.8 21.6 89 -7.3 18.9
05:10 1020 30.12 849 25.07 -5.8 21.6 90 -7.2 19.1
05:15 1020 30.12 849 25.07 -5.7 21.7 90 -7.2 19.1
05:20 1019 30.09 849 25.07 -5.7 21.8 89 -7.2 19.1
05:25 1019 30.09 849 25.07 -5.7 21.7 89 -7.2 19.1
05:30 1019 30.09 849 25.07 -5.7 21.7 90 -7.2 19.1
05:35 1019 30.09 848 25.04 -5.7 21.7 89 -7.2 19
05:40 1019 30.09 848 25.04 -5.7 21.7 89 -7.2 19
05:45 1019 30.09 849 25.07 -5.7 21.7 89 -7.2 19
05:50 1019 30.09 848 25.04 -5.6 21.9 89 -7.2 19.1
05:55 1019 30.09 848 25.04 -5.5 22.1 88 -7.2 19
06:00 1019 30.09 848 25.04 -5.4 22.2 88 -7.1 19.2
06:05 1019 30.09 849 25.07 -5.4 22.3 88 -7.1 19.3
06:10 1019 30.09 849 25.07 -5.3 22.5 87 -7.2 19.1
06:15 1019 30.09 849 25.07 -5.2 22.7 86 -7.1 19.1
06:20 1019 30.09 849 25.07 -5.2 22.6 87 -7 19.4
06:25 1019 30.09 849 25.07 -5.2 22.6 87 -7 19.4
06:30 1019 30.09 849 25.07 -5.2 22.6 87 -7.1 19.2
06:35 1019 30.09 849 25.07 -5.1 22.8 86 -7 19.4
06:40 1019 30.09 849 25.07 -5.1 22.8 87 -7 19.5
06:45 1019 30.09 849 25.07 -5.2 22.6 88 -6.9 19.6
06:50 1019 30.09 849 25.07 -5.4 22.3 89 -6.9 19.6
06:55 1020 30.12 849 25.07 -5.3 22.5 88 -7 19.4
07:00 1020 30.12 849 25.07 -5.4 22.2 88 -7.1 19.3
07:05 1020 30.12 849 25.07 -5.7 21.8 89 -7.2 19.1
07:10 1020 30.12 849 25.07 -5.7 21.7 90 -7.1 19.2
07:15 1020 30.12 849 25.07 -5.6 21.8 90 -7.1 19.2
07:20 1020 30.12 849 25.07 -5.6 22 89 -7 19.3
07:25 1019 30.09 849 25.07 -5.5 22.2 90 -6.9 19.5
07:30 1019 30.09 849 25.07 -5.4 22.2 89 -6.9 19.6
07:35 1019 30.09 849 25.07 -5.4 22.3 89 -6.9 19.6
07:40 1019 30.09 849 25.07 -5.4 22.3 89 -6.9 19.6
07:45 1019 30.09 849 25.07 -5.3 22.5 89 -6.9 19.6
07:50 1019 30.09 849 25.07 -5.3 22.5 89 -6.9 19.6
07:55 1019 30.09 848 25.04 -5.2 22.6 89 -6.8 19.8
08:00 1019 30.09 849 25.07 -5.2 22.7 89 -6.7 19.9
08:05 1019 30.09 849 25.07 -5.1 22.7 89 -6.7 19.9
08:10 1019 30.09 848 25.04 -5.1 22.8 88 -6.8 19.7
08:15 1019 30.09 848 25.04 -5.1 22.8 87 -6.9 19.6
08:20 1019 30.09 848 25.04 -5.1 22.9 86 -7 19.3
08:25 1019 30.09 848 25.04 -4.9 23.2 85 -7 19.4
08:30 1019 30.09 848 25.04 -4.7 23.5 84 -7 19.4
08:35 1019 30.09 848 25.04 -4.6 23.8 83 -7.1 19.2
08:40 1019 30.09 848 25.04 -4.4 24 82 -7 19.4
08:45 1019 30.09 848 25.04 -4.3 24.3 81 -7.1 19.2
08:50 1018 30.06 848 25.04 -4.1 24.7 79 -7.1 19.2
08:55 1018 30.06 848 25.04 -3.8 25.2 79 -6.9 19.6
09:00 1018 30.06 848 25.04 -3.6 25.6 77 -7.1 19.3
09:05 1018 30.06 848 25.04 -3.4 25.8 77 -6.9 19.6
09:10 1018 30.06 848 25.04 -3.3 26.1 77 -6.7 19.9
09:15 1018 30.06 847 25.01 -3.1 26.5 76 -6.7 20
09:20 1018 30.06 847 25.01 -2.9 26.9 75 -6.7 19.9
09:25 1018 30.06 848 25.04 -2.8 27 75 -6.6 20.1
09:30 1018 30.06 848 25.04 -2.5 27.5 74 -6.5 20.4
09:35 1018 30.06 848 25.04 -2.2 28 73 -6.5 20.4
09:40 1018 30.06 847 25.01 -1.9 28.5 71 -6.5 20.2
09:45 1018 30.06 847 25.01 -1.7 29 70 -6.4 20.5
09:50 1018 30.06 848 25.04 -1.4 29.6 69 -6.3 20.7
09:55 1018 30.06 848 25.04 -1.3 29.7 69 -6.2 20.8
10:00 1018 30.06 848 25.04 -1.2 29.8 69 -6.2 20.8
10:05 1018 30.06 848 25.04 -1 30.3 68 -6.2 20.8
10:10 1018 30.06 848 25.04 -0.9 30.3 67 -6.3 20.7
10:15 1018 30.06 848 25.04 -0.6 30.9 66 -6.2 20.9
10:20 1018 30.06 848 25.04 -0.4 31.2 66 -6 21.1
10:25 1018 30.06 848 25.04 -0.2 31.6 66 -5.8 21.5
10:30 1019 30.09 848 25.04 -0.1 31.9 65 -6 21.2
10:35 1019 30.09 848 25.04 0 32.1 64 -6 21.2
10:40 1019 30.09 848 25.04 0.3 32.5 65 -5.6 21.8
10:45 1019 30.09 848 25.04 0.8 33.4 60 -6.2 20.9
10:50 1019 30.09 848 25.04 0.6 33.2 63 -5.5 22.1
10:55 1018 30.06 848 25.04 0.6 33 63 -5.7 21.8
11:00 1018 30.06 848 25.04 0.9 33.6 63 -5.3 22.5
11:05 1018 30.06 848 25.04 1.1 34 63 -5.2 22.7
11:10 1018 30.06 848 25.04 1.2 34.1 61 -5.5 22.1
11:15 1018 30.06 848 25.04 1.5 34.7 61 -5.1 22.7
11:20 1018 30.06 847 25.01 1.7 35.1 61 -5 23
11:25 1018 30.06 847 25.01 2.1 35.8 60 -4.8 23.4
11:30 1018 30.06 847 25.01 1.8 35.3 61 -4.9 23.3
11:35 1018 30.06 847 25.01 1.6 34.8 63 -4.8 23.4
11:40 1018 30.06 847 25.01 1.6 34.9 63 -4.8 23.4
11:45 1018 30.06 847 25.01 1.5 34.7 59 -5.6 21.9
11:50 1018 30.06 847 25.01 1.2 34.2 63 -5 23
11:55 1018 30.06 847 25.01 1.2 34.2 61 -5.4 22.2
12:00 1017 30.03 847 25.01 1.3 34.3 62 -5.2 22.7
12:05 1017 30.03 847 25.01 1.5 34.7 62 -4.9 23.1
12:10 1017 30.03 847 25.01 1.9 35.5 59 -5.3 22.5
12:15 1017 30.03 846 24.98 1.9 35.5 57 -5.7 21.8
12:20 1017 30.03 846 24.98 2.5 36.5 58 -5 22.9
12:25 1017 30.03 846 24.98 2.8 37.1 57 -4.9 23.2
12:30 1017 30.03 846 24.98 2.9 37.2 55 -5.3 22.5
12:35 1017 30.03 846 24.98 3.1 37.6 54 -5.3 22.4
12:40 1017 30.03 846 24.98 3.4 38.1 53 -5.2 22.6
12:45 1017 30.03 846 24.98 3.7 38.7 51 -5.5 22.2
12:50 1017 30.03 846 24.98 3.8 38.8 52 -5.2 22.6
12:55 1017 30.03 846 24.98 3.7 38.6 49 -6.1 21
13:00 1017 30.03 846 24.98 3.4 38.1 51 -5.9 21.4
13:05 1017 30.03 846 24.98 3.5 38.2 50 -6.1 21.1
13:10 1017 30.03 846 24.98 3.5 38.3 49 -6.3 20.7
13:15 1017 30.03 846 24.98 3.6 38.5 48 -6.4 20.6
13:20 1017 30.03 846 24.98 3.7 38.7 50 -5.9 21.4
13:25 1017 30.03 846 24.98 3.8 38.8 49 -5.8 21.5
13:30 1017 30.03 846 24.98 3.4 38.1 51 -5.8 21.5
13:35 1017 30.03 846 24.98 3.4 38.1 52 -5.6 21.9
13:40 1016 30 846 24.98 3.5 38.2 51 -5.7 21.7
13:45 1016 30 846 24.98 3.5 38.2 53 -5.2 22.6
13:50 1016 30 846 24.98 3.5 38.3 52 -5.5 22.2
13:55 1016 30 845 24.95 3.5 38.2 52 -5.4 22.2
14:00 1016 30 845 24.95 3.3 38 53 -5.2 22.6
14:05 1016 30 845 24.95 3.3 38 52 -5.6 21.9
14:10 1016 30 845 24.95 3.3 38 54 -5 22.9
14:15 1016 30 845 24.95 3.2 37.8 55 -4.9 23.2
14:20 1016 30 845 24.95 3.3 37.9 54 -5.1 22.9
14:25 1016 30 845 24.95 3.2 37.7 54 -5.2 22.7
14:30 1016 30 845 24.95 3.1 37.6 55 -5.1 22.9
14:35 1016 30 845 24.95 3.2 37.7 55 -5 23
14:40 1016 30 845 24.95 3.1 37.5 56 -4.9 23.2
14:45 1016 30 845 24.95 3.3 37.9 57 -4.5 23.9
14:50 1016 30 845 24.95 3.4 38.2 55 -4.7 23.6
14:55 1016 30 845 24.95 3.5 38.3 56 -4.4 24
15:00 1016 30 845 24.95 3.5 38.3 56 -4.5 23.9
15:05 1016 30 845 24.95 3.4 38.1 55 -4.8 23.4
15:10 1016 30 845 24.95 3.5 38.2 56 -4.4 24.1
15:15 1016 30 845 24.95 3.3 38 56 -4.6 23.8
15:20 1016 30 845 24.95 3.3 38 55 -4.9 23.3
15:25 1016 30 845 24.95 3.4 38 56 -4.7 23.6
15:30 1016 30 845 24.95 3.4 38 57 -4.4 24
15:35 1016 30 845 24.95 3.2 37.7 58 -4.2 24.4
15:40 1016 30 845 24.95 3.2 37.8 59 -4.1 24.7
15:45 1016 30 845 24.95 3.2 37.7 58 -4.2 24.4
15:50 1015 29.97 845 24.95 3 37.4 60 -4.1 24.6
15:55 1015 29.97 845 24.95 3 37.3 60 -4.1 24.7
16:00 1015 29.97 845 24.95 2.8 37.1 61 -3.9 25
16:05 1016 30 845 24.95 2.9 37.2 62 -3.8 25.2
16:10 1016 30 845 24.95 2.8 37 62 -3.8 25.2
16:15 1016 30 845 24.95 2.7 36.8 63 -3.7 25.3
16:20 1016 30 845 24.95 2.7 36.8 62 -3.9 25.1
16:25 1016 30 845 24.95 2.7 36.8 62 -3.9 25
16:30 1015 29.97 845 24.95 2.6 36.8 63 -3.6 25.5
16:35 1015 29.97 845 24.95 2.7 36.8 63 -3.7 25.4
16:40 1016 30 845 24.95 2.6 36.6 63 -3.8 25.1
16:45 1015 29.97 845 24.95 2.5 36.5 64 -3.7 25.4
16:50 1015 29.97 845 24.95 2.5 36.5 62 -4 24.7
16:55 1015 29.97 845 24.95 2.5 36.4 65 -3.6 25.6
17:00 1015 29.97 845 24.95 2.4 36.3 62 -4.2 24.5
17:05 1015 29.97 844 24.92 2.4 36.3 63 -3.9 24.9
17:10 1015 29.97 844 24.92 2.4 36.4 52 -6.5 20.3
17:15 1015 29.97 844 24.92 3 37.4 55 -5.1 22.8
17:20 1015 29.97 844 24.92 3.5 38.3 50 -6 21.3
17:25 1015 29.97 844 24.92 3.6 38.4 58 -3.9 25
17:30 1015 29.97 844 24.92 2.9 37.2 59 -4.4 24.2
17:35 1015 29.97 845 24.95 2.8 37.1 58 -4.5 23.8
17:40 1015 29.97 844 24.92 2.7 36.9 61 -4 24.7
17:45 1015 29.97 844 24.92 2.4 36.3 64 -3.8 25.2
17:50 1015 29.97 844 24.92 2.4 36.3 59 -4.9 23.2
17:55 1015 29.97 844 24.92 2.8 37 54 -5.6 21.9
18:00 1015 29.97 844 24.92 3.3 38 50 -6 21.2
18:05 1015 29.97 844 24.92 3.9 39 47 -6.4 20.5
18:10 1015 29.97 844 24.92 4.3 39.8 48 -5.6 21.9
18:15 1015 29.97 844 24.92 4.1 39.3 49 -5.6 22
18:20 1015 29.97 844 24.92 4 39.2 47 -6.4 20.5
18:25 1015 29.97 844 24.92 4.5 40.1 46 -6.2 20.8
18:30 1015 29.97 844 24.92 4.6 40.3 47 -5.9 21.5
18:35 1015 29.97 844 24.92 4.4 39.9 46 -6.2 20.8
18:40 1015 29.97 844 24.92 4.2 39.6 49 -5.7 21.8
18:45 1015 29.97 844 24.92 4 39.2 49 -5.8 21.6
18:50 1015 29.97 844 24.92 4 39.3 47 -6.4 20.5
18:55 1015 29.97 844 24.92 4.2 39.6 45 -6.7 20
19:00 1015 29.97 844 24.92 4.3 39.8 47 -6 21.2
19:05 1015 29.97 844 24.92 4.6 40.2 45 -6.3 20.7
19:10 1015 29.97 844 24.92 4.9 40.9 42 -7.1 19.3
19:15 1015 29.97 844 24.92 5.2 41.4 42 -6.8 19.8
19:20 1014 29.94 844 24.92 5.3 41.5 43 -6.3 20.7
19:25 1014 29.94 844 24.92 5.2 41.4 44 -6.1 21
19:30 1014 29.94 844 24.92 5.2 41.4 43 -6.4 20.4
19:35 1014 29.94 844 24.92 5.4 41.7 42 -6.5 20.3
19:40 1014 29.94 843 24.89 5.4 41.8 41 -6.9 19.6
19:45 1014 29.94 843 24.89 5.4 41.8 42 -6.6 20.1
19:50 1014 29.94 843 24.89 5.4 41.7 44 -5.8 21.5
19:55 1014 29.94 843 24.89 5.3 41.5 46 -5.5 22.1
20:00 1014 29.94 843 24.89 5 41 46 -5.5 22
20:05 1014 29.94 843 24.89 5.2 41.4 43 -6.2 20.8
20:10 1014 29.94 843 24.89 5.6 42.1 43 -6 21.2
20:15 1014 29.94 843 24.89 5.6 42.2 43 -5.9 21.3
20:20 1014 29.94 843 24.89 5.6 42.1 44 -5.8 21.5
20:25 1014 29.94 843 24.89 5.6 42 43 -5.9 21.3
20:30 1014 29.94 843 24.89 5.5 42 45 -5.4 22.3
20:35 1014 29.94 843 24.89 5.4 41.6 46 -5.5 22.2
20:40 1014 29.94 843 24.89 5.4 41.7 43 -6.2 20.8
20:45 1014 29.94 843 24.89 5.6 42 45 -5.5 22.1
20:50 1014 29.94 843 24.89 5.5 41.9 44 -5.7 21.8
20:55 1014 29.94 843 24.89 5.5 41.8 43 -6 21.1
21:00 1014 29.94 843 24.89 5.5 41.9 44 -5.8 21.6
21:05 1014 29.94 843 24.89 5.5 41.9 43 -6.1 21.1
21:10 1013 29.91 843 24.89 5.6 42.2 42 -6.2 20.9
21:15 1013 29.91 843 24.89 5.6 42.1 43 -6.1 21
21:20 1013 29.91 843 24.89 5.5 41.9 43 -6.2 20.8
21:25 1013 29.91 843 24.89 5.6 42 42 -6.2 20.8
21:30 1013 29.91 843 24.89 5.6 42.1 43 -6.1 20.9
21:35 1013 29.91 843 24.89 5.8 42.4 41 -6.3 20.6
21:40 1013 29.91 842 24.86 5.7 42.2 44 -5.8 21.6
21:45 1013 29.91 842 24.86 5.5 41.9 44 -5.7 21.7
21:50 1013 29.91 842 24.86 5.6 42.1 41 -6.5 20.2
21:55 1013 29.91 842 24.86 5.8 42.4 41 -6.4 20.6
22:00 1013 29.91 842 24.86 5.8 42.4 40 -6.9 19.6
22:05 1013 29.91 842 24.86 5.8 42.5 42 -6 21.2
22:10 1013 29.91 842 24.86 5.7 42.3 43 -6 21.1
22:15 1013 29.91 842 24.86 5.6 42.1 41 -6.5 20.3
22:20 1013 29.91 842 24.86 5.7 42.2 45 -5.5 22.2
22:25 1013 29.91 842 24.86 5.3 41.6 46 -5.4 22.3
22:30 1013 29.91 842 24.86 5 41 46 -5.8 21.6
22:35 1013 29.91 842 24.86 5 40.9 47 -5.5 22.1
22:40 1013 29.91 842 24.86 4.8 40.6 48 -5.4 22.4
22:45 1013 29.91 842 24.86 4.6 40.3 50 -5 23
22:50 1013 29.91 842 24.86 4.7 40.5 44 -6.4 20.5
22:55 1013 29.91 842 24.86 5.1 41.2 45 -5.9 21.4
23:00 1013 29.91 842 24.86 5.2 41.3 46 -5.6 21.9
23:05 1013 29.91 842 24.86 5.1 41.2 44 -6.1 21
23:10 1013 29.91 842 24.86 5.2 41.4 42 -6.5 20.2
23:15 1013 29.91 842 24.86 5.5 42 40 -7.1 19.1
23:20 1013 29.91 842 24.86 6.1 43 37 -7.5 18.6
23:25 1012 29.88 842 24.86 6.3 43.3 38 -7.1 19.2
23:30 1012 29.88 842 24.86 6.2 43.2 38 -7.1 19.1
23:35 1012 29.88 842 24.86 6.1 43.1 38 -7.2 19.1
23:40 1012 29.88 842 24.86 6.3 43.3 39 -6.7 20
23:45 1012 29.88 842 24.86 6 42.8 40 -6.5 20.2
23:50 1012 29.88 841 24.83 5.9 42.6 40 -6.8 19.8
23:55 1012 29.88 841 24.83 5.9 42.7 38 -7.2 19.1
24:00 1012 29.88 841 24.83 5.9 42.7 41 -6.5 20.3